createdAt,value
2023-12-04T00:01:50.531Z,101533.22
2023-12-04T00:04:52.219Z,101533.28
2023-12-04T00:07:53.883Z,101527.31
2023-12-04T00:10:55.597Z,101525.63
2023-12-04T00:13:57.175Z,101515.59
2023-12-04T00:16:58.775Z,101518.13
2023-12-04T00:20:00.358Z,101503.72
2023-12-04T00:23:02.131Z,101534.66
2023-12-04T00:26:03.926Z,101529.59
2023-12-04T00:29:05.643Z,101531.44
2023-12-04T00:32:07.886Z,101533.31
2023-12-04T00:35:09.555Z,101527.56
2023-12-04T00:38:11.190Z,101527.63
2023-12-04T00:41:12.798Z,101527.72
2023-12-04T00:44:14.378Z,101529.53
2023-12-04T00:47:15.964Z,101517.59
2023-12-04T00:50:17.628Z,101518.47
2023-12-04T00:53:19.265Z,101512.56
2023-12-04T00:56:21.729Z,101525.34
2023-12-04T00:59:23.370Z,101513.16
2023-12-04T01:02:25.028Z,101523.19
2023-12-04T01:05:26.755Z,101494.91
2023-12-04T01:08:28.357Z,101516.19
2023-12-04T01:11:29.946Z,101513.69
2023-12-04T01:14:32.127Z,101523.03
2023-12-04T01:17:33.706Z,101522.16
2023-12-04T01:20:35.630Z,101519.53
2023-12-04T01:23:37.439Z,101537.56
2023-12-04T01:26:39.299Z,101536.72
2023-12-04T01:29:40.843Z,101534.16
2023-12-04T01:32:42.521Z,101531.69
2023-12-04T01:35:44.264Z,101536.91
2023-12-04T01:38:45.879Z,101535.38
2023-12-04T01:41:47.559Z,101532.09
2023-12-04T01:44:49.245Z,101539.91
2023-12-04T01:47:51.153Z,101538.19
2023-12-04T01:50:53.961Z,101527.84
2023-12-04T01:54:00.406Z,101548.34
2023-12-04T01:57:04.283Z,101529.47
2023-12-04T02:00:12.645Z,101536.09
2023-12-04T02:03:15.195Z,101544.66
2023-12-04T02:06:18.460Z,101537.69
2023-12-04T02:09:20.403Z,101541.03
2023-12-04T02:12:22.305Z,101524.09
2023-12-04T02:15:23.931Z,101538.78
2023-12-04T02:18:26.203Z,101527.03
2023-12-04T02:21:27.792Z,101534.00
2023-12-04T02:24:30.223Z,101534.09
2023-12-04T02:27:43.925Z,101543.63
2023-12-04T02:30:48.536Z,101526.66
2023-12-04T02:33:54.027Z,101550.31
2023-12-04T02:36:56.658Z,101540.81
2023-12-04T02:39:59.437Z,101539.28
2023-12-04T02:43:01.125Z,101536.03
2023-12-04T02:46:02.950Z,101524.88
2023-12-04T02:49:04.674Z,101535.91
2023-12-04T02:52:06.686Z,101527.16
2023-12-04T02:55:08.974Z,101533.88
2023-12-04T02:58:10.666Z,101543.25
2023-12-04T03:01:12.266Z,101541.53
2023-12-04T03:04:14.437Z,101540.56
2023-12-04T03:07:16.144Z,101543.19
2023-12-04T03:10:17.984Z,101552.59
2023-12-04T03:13:19.629Z,101547.44
2023-12-04T03:16:21.285Z,101549.13
2023-12-04T03:19:23.002Z,101544.91
2023-12-04T03:22:24.668Z,101529.63
2023-12-04T03:25:26.887Z,101544.25
2023-12-04T03:28:28.468Z,101546.91
2023-12-04T03:31:30.623Z,101553.06
2023-12-04T03:34:32.286Z,101556.59
2023-12-04T03:37:33.930Z,101539.41
2023-12-04T03:40:35.600Z,101539.44
2023-12-04T03:43:37.212Z,101536.09
2023-12-04T03:46:38.784Z,101551.47
2023-12-04T03:49:40.392Z,101549.81
2023-12-04T03:52:42.849Z,101550.72
2023-12-04T03:55:44.674Z,101531.94
2023-12-04T03:58:46.313Z,101530.25
2023-12-04T04:01:47.954Z,101537.97
2023-12-04T04:04:49.601Z,101516.63
2023-12-04T04:07:51.231Z,101538.03
2023-12-04T04:10:52.880Z,101546.59
2023-12-04T04:13:54.448Z,101546.63
2023-12-04T04:16:56.026Z,101549.22
2023-12-04T04:19:57.666Z,101548.31
2023-12-04T04:22:59.249Z,101549.16
2023-12-04T04:26:00.945Z,101544.03
2023-12-04T04:29:02.531Z,101535.41
2023-12-04T04:32:04.574Z,101545.47
2023-12-04T04:35:06.474Z,101537.56
2023-12-04T04:38:08.020Z,101542.66
2023-12-04T04:41:15.296Z,101543.72
2023-12-04T04:44:16.932Z,101535.19
2023-12-04T04:47:18.498Z,101524.09
2023-12-04T04:50:20.244Z,101541.91
2023-12-04T04:53:22.113Z,101556.41
2023-12-04T04:56:23.701Z,101567.63
2023-12-04T04:59:25.402Z,101567.66
2023-12-04T05:02:27.638Z,101543.84
2023-12-04T05:05:29.550Z,101558.41
2023-12-04T05:08:31.990Z,101555.84
2023-12-04T05:11:33.649Z,101565.22
2023-12-04T05:14:35.295Z,101552.44
2023-12-04T05:17:36.914Z,101555.91
2023-12-04T05:20:38.589Z,101560.22
2023-12-04T05:23:40.864Z,101571.38
2023-12-04T05:26:42.463Z,101561.97
2023-12-04T05:29:44.214Z,101558.56
2023-12-04T05:32:45.968Z,101546.59
2023-12-04T05:35:49.245Z,101550.06
2023-12-04T05:38:50.826Z,101562.91
2023-12-04T05:41:52.414Z,101561.22
2023-12-04T05:44:56.531Z,101551.84
2023-12-04T05:47:58.288Z,101568.06
2023-12-04T05:50:59.984Z,101563.81
2023-12-04T05:54:01.566Z,101568.13
2023-12-04T05:57:03.273Z,101559.56
2023-12-04T06:00:06.737Z,101557.84
2023-12-04T06:03:08.401Z,101570.69
2023-12-04T06:06:10.061Z,101567.25
2023-12-04T06:09:11.919Z,101579.22
2023-12-04T06:12:13.685Z,101551.00
2023-12-04T06:15:15.390Z,101578.38
2023-12-04T06:18:17.045Z,101574.94
2023-12-04T06:21:18.715Z,101577.53
2023-12-04T06:24:20.780Z,101585.22
2023-12-04T06:27:22.906Z,101580.09
2023-12-04T06:30:24.930Z,101580.94
2023-12-04T06:33:27.365Z,101591.22
2023-12-04T06:36:36.433Z,101583.50
2023-12-04T06:39:39.868Z,101585.22
2023-12-04T06:42:41.974Z,101588.59
2023-12-04T06:45:44.017Z,101590.31
2023-12-04T06:48:45.796Z,101588.56
2023-12-04T06:51:47.457Z,101591.97
2023-12-04T06:54:49.187Z,101600.50
2023-12-04T06:57:50.896Z,101585.91
2023-12-04T07:00:54.345Z,101590.13
2023-12-04T07:03:55.986Z,101596.06
2023-12-04T07:06:59.369Z,101602.78
2023-12-04T07:10:01.104Z,101596.63
2023-12-04T07:13:02.802Z,101598.16
2023-12-04T07:16:04.930Z,101600.50
2023-12-04T07:19:06.731Z,101600.34
2023-12-04T07:22:08.402Z,101604.44
2023-12-04T07:25:10.250Z,101594.84
2023-12-04T07:28:11.869Z,101590.25
2023-12-04T07:31:13.580Z,101578.91
2023-12-04T07:34:15.376Z,101591.50
2023-12-04T07:37:17.139Z,101587.75
2023-12-04T07:40:18.946Z,101584.13
2023-12-04T07:43:20.717Z,101580.38
2023-12-04T07:46:22.467Z,101585.19
2023-12-04T07:49:24.167Z,101595.09
2023-12-04T07:52:25.788Z,101598.47
2023-12-04T07:55:27.881Z,101600.81
2023-12-04T07:58:29.516Z,101602.28
2023-12-04T08:01:31.541Z,101597.91
2023-12-04T08:04:33.784Z,101603.78
2023-12-04T08:07:35.429Z,101585.69
2023-12-04T08:10:37.371Z,101612.75
2023-12-04T08:13:41.921Z,101607.25
2023-12-04T08:16:43.515Z,101616.81
2023-12-04T08:19:46.014Z,101616.16
2023-12-04T08:22:48.210Z,101620.41
2023-12-04T08:25:49.789Z,101622.34
2023-12-04T08:28:54.161Z,101618.34
2023-12-04T08:31:55.893Z,101616.72
2023-12-04T08:34:57.434Z,101612.34
2023-12-04T08:38:05.348Z,101620.16
2023-12-04T08:41:07.560Z,101624.56
2023-12-04T08:44:09.171Z,101612.44
2023-12-04T08:47:11.059Z,101616.47
2023-12-04T08:50:12.677Z,101615.38
2023-12-04T08:53:14.377Z,101598.09
2023-12-04T08:56:19.641Z,101606.25
2023-12-04T08:59:26.891Z,101599.00
2023-12-04T09:02:28.647Z,101608.03
2023-12-04T09:05:30.581Z,101615.50
2023-12-04T09:08:37.809Z,101610.78
2023-12-04T09:11:44.653Z,101612.56
2023-12-04T09:14:46.704Z,101611.25
2023-12-04T09:17:48.335Z,101591.41
2023-12-04T09:20:50.024Z,101601.50
2023-12-04T09:23:51.697Z,101600.63
2023-12-04T09:26:53.203Z,101600.16
2023-12-04T09:29:54.913Z,101601.50
2023-12-04T09:32:56.446Z,101595.75
2023-12-04T09:35:58.323Z,101596.03
2023-12-04T09:38:59.851Z,101583.66
2023-12-04T09:42:02.692Z,101577.28
2023-12-04T09:45:04.766Z,101582.31
2023-12-04T09:48:07.827Z,101572.41
2023-12-04T09:51:11.168Z,101561.72
2023-12-04T09:54:13.416Z,101564.59
2023-12-04T09:57:15.531Z,101559.06
2023-12-04T10:00:18.969Z,101539.75
2023-12-04T10:03:20.683Z,101546.81
2023-12-04T10:06:24.979Z,101545.25
2023-12-04T10:09:26.627Z,101534.16
2023-12-04T10:12:29.010Z,101531.38
2023-12-04T10:15:30.836Z,101516.44
2023-12-04T10:18:33.096Z,101514.56
2023-12-04T10:21:35.204Z,101498.72
2023-12-04T10:24:40.649Z,101502.41
2023-12-04T10:27:42.596Z,101494.81
2023-12-04T10:30:44.752Z,101498.66
2023-12-04T10:33:50.838Z,101487.16
2023-12-04T10:36:53.179Z,101485.63
2023-12-04T10:39:54.998Z,101488.53
2023-12-04T10:43:11.176Z,101481.91
2023-12-04T10:46:13.734Z,101483.59
2023-12-04T10:49:15.724Z,101478.59
2023-12-04T10:52:20.844Z,101460.72
2023-12-04T10:55:22.668Z,101470.22
2023-12-04T10:58:27.712Z,101452.09
2023-12-04T11:01:30.954Z,101460.16
2023-12-04T11:04:35.895Z,101454.44
2023-12-04T11:08:12.608Z,101443.56
2023-12-04T11:11:05.525Z,101447.09
2023-12-04T11:14:11.718Z,101447.50
2023-12-04T11:17:15.819Z,101444.53
2023-12-04T11:20:21.127Z,101440.16
2023-12-04T11:23:23.733Z,101430.75
2023-12-04T11:26:27.277Z,101435.25
2023-12-04T11:29:30.472Z,101423.13
2023-12-04T11:32:32.104Z,101425.16
2023-12-04T11:35:35.358Z,101424.97
2023-12-04T11:38:38.059Z,101419.13
2023-12-04T11:41:42.248Z,101420.88
2023-12-04T11:44:43.900Z,101429.22
2023-12-04T11:47:58.997Z,101421.31
2023-12-04T11:51:01.667Z,101421.91
2023-12-04T11:54:06.151Z,101406.19
2023-12-04T11:57:10.709Z,101414.94
2023-12-04T12:00:19.797Z,101400.22
2023-12-04T12:03:23.736Z,101379.38
2023-12-04T12:06:26.208Z,101368.19
2023-12-04T12:09:29.463Z,101373.78
2023-12-04T12:12:33.391Z,101363.50
2023-12-04T12:15:35.524Z,101361.44
2023-12-04T12:18:37.570Z,101349.50
2023-12-04T12:21:39.757Z,101357.00
2023-12-04T12:24:41.419Z,101354.91
2023-12-04T12:27:44.102Z,101338.69
2023-12-04T12:30:46.814Z,101340.13
2023-12-04T12:33:48.667Z,101343.59
2023-12-04T12:36:50.873Z,101328.34
2023-12-04T12:39:53.128Z,101333.81
2023-12-04T12:43:06.758Z,101332.59
2023-12-04T12:46:09.422Z,101328.34
2023-12-04T12:49:18.415Z,101319.94
2023-12-04T12:52:25.019Z,101329.13
2023-12-04T12:55:28.242Z,101312.41
2023-12-04T12:58:30.207Z,101322.81
2023-12-04T13:01:32.909Z,101317.28
2023-12-04T13:04:39.019Z,101316.50
2023-12-04T13:07:42.411Z,101302.81
2023-12-04T13:10:44.358Z,101307.53
2023-12-04T13:13:46.165Z,101314.78
2023-12-04T13:16:47.878Z,101307.63
2023-12-04T13:19:49.544Z,101308.03
2023-12-04T13:22:51.263Z,101291.81
2023-12-04T13:25:52.775Z,101307.97
2023-12-04T13:28:54.489Z,101308.25
2023-12-04T13:31:56.069Z,101307.56
2023-12-04T13:34:57.678Z,101305.09
2023-12-04T13:38:00.471Z,101299.59
2023-12-04T13:41:09.939Z,101289.13
2023-12-04T13:44:15.428Z,101287.00
2023-12-04T13:47:17.187Z,101288.47
2023-12-04T13:50:18.907Z,101284.59
2023-12-04T13:53:26.822Z,101283.19
2023-12-04T13:56:45.661Z,101274.78
2023-12-04T13:59:47.501Z,101268.44
2023-12-04T14:02:49.326Z,101260.00
2023-12-04T14:05:51.398Z,101253.03
2023-12-04T14:08:53.380Z,101255.06
2023-12-04T14:11:55.198Z,101254.34
2023-12-04T14:14:59.852Z,101248.44
2023-12-04T14:18:01.588Z,101245.13
2023-12-04T14:21:03.526Z,101240.22
2023-12-04T14:24:05.463Z,101240.38
2023-12-04T14:27:10.256Z,101235.50
2023-12-04T14:30:12.698Z,101244.97
2023-12-04T14:33:14.343Z,101241.72
2023-12-04T14:36:16.038Z,101243.56
2023-12-04T14:39:19.971Z,101242.81
2023-12-04T14:42:21.717Z,101228.59
2023-12-04T14:45:23.474Z,101231.09
2023-12-04T14:48:25.043Z,101232.88
2023-12-04T14:51:27.678Z,101242.59
2023-12-04T14:54:49.192Z,101241.81
2023-12-04T14:58:02.947Z,101246.44
2023-12-04T15:01:24.932Z,101241.47
2023-12-04T15:05:04.668Z,101233.91
2023-12-04T15:08:42.142Z,101224.56
2023-12-04T15:11:43.793Z,101229.13
2023-12-04T15:14:55.442Z,101218.84
2023-12-04T15:18:17.114Z,101219.22
2023-12-04T15:21:18.836Z,101210.03
2023-12-04T15:24:20.549Z,101196.66
2023-12-04T15:27:22.208Z,101199.38
2023-12-04T15:30:23.826Z,101207.97
2023-12-04T15:33:27.440Z,101215.03
2023-12-04T15:36:29.076Z,101221.25
2023-12-04T15:39:30.731Z,101216.00
2023-12-04T15:42:32.803Z,101207.34
2023-12-04T15:45:34.673Z,101199.78
2023-12-04T15:48:36.292Z,101198.81
2023-12-04T15:51:38.472Z,101185.25
2023-12-04T15:54:40.231Z,101193.94
2023-12-04T15:57:41.782Z,101195.50
2023-12-04T16:00:45.084Z,101195.53
2023-12-04T16:03:46.799Z,101172.56
2023-12-04T16:06:49.989Z,101186.22
2023-12-04T16:09:51.759Z,101205.13
2023-12-04T16:12:53.368Z,101202.44
2023-12-04T16:15:55.107Z,101205.66
2023-12-04T16:18:56.878Z,101181.63
2023-12-04T16:21:58.397Z,101199.44
2023-12-04T16:25:00.007Z,101203.81
2023-12-04T16:28:02.055Z,101197.84
2023-12-04T16:31:06.573Z,101202.16
2023-12-04T16:34:08.383Z,101192.84
2023-12-04T16:37:10.084Z,101196.31
2023-12-04T16:40:12.239Z,101175.66
2023-12-04T16:43:13.942Z,101167.19
2023-12-04T16:46:15.590Z,101148.50
2023-12-04T16:49:17.578Z,101153.47
2023-12-04T16:52:19.355Z,101146.88
2023-12-04T16:55:20.979Z,101165.63
2023-12-04T16:58:22.650Z,101164.81
2023-12-04T17:01:24.508Z,101166.66
2023-12-04T17:04:26.188Z,101163.31
2023-12-04T17:07:27.945Z,101157.53
2023-12-04T17:10:30.103Z,101142.09
2023-12-04T17:13:31.863Z,101158.44
2023-12-04T17:16:33.698Z,101155.00
2023-12-04T17:19:36.776Z,101160.13
2023-12-04T17:22:38.524Z,101142.19
2023-12-04T17:25:41.585Z,101141.13
2023-12-04T17:28:43.229Z,101138.75
2023-12-04T17:31:45.366Z,101143.94
2023-12-04T17:34:47.830Z,101138.56
2023-12-04T17:37:49.570Z,101142.78
2023-12-04T17:40:51.188Z,101123.16
2023-12-04T17:43:53.045Z,101133.34
2023-12-04T17:46:56.155Z,101129.13
2023-12-04T17:49:58.502Z,101136.06
2023-12-04T17:53:00.789Z,101124.03
2023-12-04T17:56:02.476Z,101099.97
2023-12-04T17:59:04.579Z,101107.81
2023-12-04T18:02:10.440Z,101098.34
2023-12-04T18:05:15.723Z,101108.66
2023-12-04T18:08:17.467Z,101103.47
2023-12-04T18:11:19.657Z,101108.69
2023-12-04T18:14:21.489Z,101111.34
2023-12-04T18:17:23.045Z,101113.22
2023-12-04T18:20:24.690Z,101092.59
2023-12-04T18:23:26.346Z,101100.19
2023-12-04T18:26:28.454Z,101089.91
2023-12-04T18:29:30.638Z,101069.59
2023-12-04T18:32:33.117Z,101070.59
2023-12-04T18:35:34.966Z,101066.28
2023-12-04T18:38:41.536Z,101083.28
2023-12-04T18:41:43.698Z,101067.09
2023-12-04T18:44:45.561Z,101068.69
2023-12-04T18:47:52.369Z,101074.63
2023-12-04T18:50:54.327Z,101065.34
2023-12-04T18:53:56.375Z,101065.50
2023-12-04T18:56:59.708Z,101058.63
2023-12-04T19:00:01.470Z,101060.25
2023-12-04T19:03:03.197Z,101061.16
2023-12-04T19:06:05.243Z,101054.38
2023-12-04T19:09:08.162Z,101057.75
2023-12-04T19:12:09.997Z,101056.00
2023-12-04T19:15:12.058Z,101052.56
2023-12-04T19:18:13.816Z,101051.69
2023-12-04T19:21:15.618Z,101053.53
2023-12-04T19:24:17.942Z,101055.38
2023-12-04T19:27:19.617Z,101054.44
2023-12-04T19:30:21.264Z,101048.41
2023-12-04T19:33:28.482Z,101011.66
2023-12-04T19:36:32.359Z,101025.16
2023-12-04T19:39:34.011Z,101023.47
2023-12-04T19:42:35.682Z,101013.13
2023-12-04T19:45:37.320Z,100999.47
2023-12-04T19:48:39.005Z,100997.91
2023-12-04T19:51:46.976Z,101008.16
2023-12-04T19:54:49.292Z,101012.56
2023-12-04T19:57:50.938Z,101007.38
2023-12-04T20:00:52.623Z,101003.09
2023-12-04T20:03:54.522Z,101014.44
2023-12-04T20:06:56.359Z,101013.03
2023-12-04T20:09:58.911Z,101026.91
2023-12-04T20:13:00.405Z,101022.75
2023-12-04T20:16:08.694Z,101012.88
2023-12-04T20:19:10.426Z,101023.56
2023-12-04T20:22:14.533Z,101027.03
2023-12-04T20:25:16.203Z,101015.66
2023-12-04T20:28:20.058Z,101000.97
2023-12-04T20:31:21.665Z,100977.19
2023-12-04T20:34:23.438Z,100969.25
2023-12-04T20:37:25.279Z,100976.84
2023-12-04T20:40:47.324Z,100968.84
2023-12-04T20:43:48.998Z,100967.25
2023-12-04T20:46:53.252Z,100981.09
2023-12-04T20:49:54.912Z,100971.63
2023-12-04T20:52:56.548Z,100967.34
2023-12-04T20:55:58.258Z,100944.34
2023-12-04T20:59:00.079Z,100945.78
2023-12-04T21:02:03.364Z,100936.44
2023-12-04T21:05:05.731Z,100922.72
2023-12-04T21:08:07.775Z,100932.00
2023-12-04T21:11:10.948Z,100927.75
2023-12-04T21:14:12.595Z,100927.66
2023-12-04T21:17:14.242Z,100916.56
2023-12-04T21:20:16.014Z,100917.50
2023-12-04T21:23:17.508Z,100920.88
2023-12-04T21:26:19.142Z,100894.59
2023-12-04T21:29:20.790Z,100913.25
2023-12-04T21:32:22.424Z,100898.03
2023-12-04T21:35:24.066Z,100885.94
2023-12-04T21:38:25.749Z,100886.75
2023-12-04T21:41:27.518Z,100879.03
2023-12-04T21:44:29.110Z,100873.84
2023-12-04T21:47:30.914Z,100877.28
2023-12-04T21:50:32.597Z,100882.34
2023-12-04T21:53:35.750Z,100866.25
2023-12-04T21:56:37.667Z,100867.09
2023-12-04T21:59:39.232Z,100876.34
2023-12-04T22:02:43.137Z,100863.41
2023-12-04T22:05:45.852Z,100848.81
2023-12-04T22:08:47.457Z,100851.22
2023-12-04T22:11:49.074Z,100854.72
2023-12-04T22:14:50.670Z,100859.88
2023-12-04T22:17:55.272Z,100856.38
2023-12-04T22:20:57.013Z,100847.75
2023-12-04T22:23:58.971Z,100853.69
2023-12-04T22:27:00.548Z,100841.66
2023-12-04T22:30:02.164Z,100826.25
2023-12-04T22:33:03.817Z,100828.66
2023-12-04T22:36:06.553Z,100820.91
2023-12-04T22:39:08.355Z,100813.41
2023-12-04T22:42:09.908Z,100825.34
2023-12-04T22:45:16.326Z,100819.28
2023-12-04T22:48:18.131Z,100794.50
2023-12-04T22:51:21.065Z,100809.06
2023-12-04T22:54:22.878Z,100805.78
2023-12-04T22:57:24.542Z,100808.06
2023-12-04T23:00:26.702Z,100790.94
2023-12-04T23:03:28.590Z,100795.81
2023-12-04T23:06:30.227Z,100783.69
2023-12-04T23:09:31.969Z,100778.44
2023-12-04T23:12:33.939Z,100762.16
2023-12-04T23:15:35.603Z,100767.13
2023-12-04T23:18:37.492Z,100773.94
2023-12-04T23:21:39.531Z,100774.69
2023-12-04T23:24:41.161Z,100782.38
2023-12-04T23:27:42.848Z,100767.56
